createdAt,value
2022-11-25T00:00:46.088Z,1011.38
2022-11-25T00:01:46.185Z,1011.34
2022-11-25T00:02:46.366Z,1011.37
2022-11-25T00:03:46.092Z,1011.40
2022-11-25T00:04:46.071Z,1011.40
2022-11-25T00:05:46.078Z,1011.43
2022-11-25T00:06:46.105Z,1011.42
2022-11-25T00:07:46.133Z,1011.40
2022-11-25T00:08:46.066Z,1011.37
2022-11-25T00:09:46.086Z,1011.39
2022-11-25T00:10:46.054Z,1011.36
2022-11-25T00:11:46.060Z,1011.36
2022-11-25T00:12:46.049Z,1011.42
2022-11-25T00:13:46.043Z,1011.41
2022-11-25T00:14:46.036Z,1011.47
2022-11-25T00:15:46.034Z,1011.45
2022-11-25T00:16:48.592Z,1011.47
2022-11-25T00:17:46.028Z,1011.49
2022-11-25T00:18:46.024Z,1011.49
2022-11-25T00:19:46.019Z,1011.43
2022-11-25T00:20:46.010Z,1011.41
2022-11-25T00:21:46.012Z,1011.44
2022-11-25T00:22:46.022Z,1011.45
2022-11-25T00:23:46.007Z,1011.40
2022-11-25T00:24:45.999Z,1011.43
2022-11-25T00:25:45.997Z,1011.41
2022-11-25T00:26:45.995Z,1011.41
2022-11-25T00:27:45.990Z,1011.41
2022-11-25T00:28:45.987Z,1011.40
2022-11-25T00:29:45.987Z,1011.39
2022-11-25T00:30:45.975Z,1011.38
2022-11-25T00:31:46.020Z,1011.37
2022-11-25T00:32:45.968Z,1011.40
2022-11-25T00:33:45.971Z,1011.42
2022-11-25T00:34:45.972Z,1011.46
2022-11-25T00:35:45.959Z,1011.45
2022-11-25T00:36:45.951Z,1011.44
2022-11-25T00:37:45.954Z,1011.41
2022-11-25T00:38:45.970Z,1011.45
2022-11-25T00:39:45.954Z,1011.47
2022-11-25T00:40:45.942Z,1011.48
2022-11-25T00:41:45.935Z,1011.49
2022-11-25T00:42:45.938Z,1011.44
2022-11-25T00:43:45.929Z,1011.40
2022-11-25T00:44:45.927Z,1011.40
2022-11-25T00:45:45.989Z,1011.42
2022-11-25T00:46:45.925Z,1011.41
2022-11-25T00:47:45.914Z,1011.37
2022-11-25T00:48:45.911Z,1011.43
2022-11-25T00:49:45.913Z,1011.39
2022-11-25T00:50:45.902Z,1011.44
2022-11-25T00:51:45.905Z,1011.43
2022-11-25T00:52:45.898Z,1011.47
2022-11-25T00:53:45.892Z,1011.50
2022-11-25T00:54:45.918Z,1011.47
2022-11-25T00:55:45.885Z,1011.50
2022-11-25T00:56:45.882Z,1011.50
2022-11-25T00:57:45.875Z,1011.50
2022-11-25T00:58:45.880Z,1011.45
2022-11-25T00:59:45.871Z,1011.51
2022-11-25T01:00:45.949Z,1011.51
2022-11-25T01:01:45.962Z,1011.50
2022-11-25T01:02:45.963Z,1011.49
2022-11-25T01:03:45.855Z,1011.47
2022-11-25T01:04:45.854Z,1011.48
2022-11-25T01:05:45.851Z,1011.44
2022-11-25T01:06:45.852Z,1011.49
2022-11-25T01:07:45.908Z,1011.45
2022-11-25T01:08:45.844Z,1011.45
2022-11-25T01:09:45.845Z,1011.47
2022-11-25T01:10:45.850Z,1011.45
2022-11-25T01:11:45.826Z,1011.44
2022-11-25T01:12:45.824Z,1011.43
2022-11-25T01:13:45.818Z,1011.50
2022-11-25T01:14:45.819Z,1011.48
2022-11-25T01:15:45.831Z,1011.43
2022-11-25T01:16:45.902Z,1011.49
2022-11-25T01:17:45.802Z,1011.46
2022-11-25T01:18:45.803Z,1011.53
2022-11-25T01:19:45.794Z,1011.53
2022-11-25T01:20:45.799Z,1011.52
2022-11-25T01:21:45.796Z,1011.56
2022-11-25T01:22:45.788Z,1011.53
2022-11-25T01:23:45.780Z,1011.55
2022-11-25T01:24:45.783Z,1011.53
2022-11-25T01:25:45.778Z,1011.51
2022-11-25T01:26:45.798Z,1011.46
2022-11-25T01:27:45.771Z,1011.51
2022-11-25T01:28:45.771Z,1011.48
2022-11-25T01:29:45.760Z,1011.51
2022-11-25T01:30:45.760Z,1011.53
2022-11-25T01:31:45.823Z,1011.54
2022-11-25T01:32:45.758Z,1011.49
2022-11-25T01:33:45.750Z,1011.44
2022-11-25T01:34:45.750Z,1011.43
2022-11-25T01:35:45.741Z,1011.44
2022-11-25T01:36:45.740Z,1011.43
2022-11-25T01:37:45.731Z,1011.46
2022-11-25T01:38:45.731Z,1011.43
2022-11-25T01:39:45.725Z,1011.44
2022-11-25T01:40:46.052Z,1011.41
2022-11-25T01:41:45.722Z,1011.42
2022-11-25T01:42:45.745Z,1011.41
2022-11-25T01:43:45.711Z,1011.44
2022-11-25T01:44:45.710Z,1011.40
2022-11-25T01:45:45.763Z,1011.39
2022-11-25T01:46:45.701Z,1011.37
2022-11-25T01:47:45.694Z,1011.37
2022-11-25T01:48:45.698Z,1011.36
2022-11-25T01:49:45.687Z,1011.38
2022-11-25T01:50:45.692Z,1011.37
2022-11-25T01:51:45.681Z,1011.34
2022-11-25T01:52:45.679Z,1011.36
2022-11-25T01:53:45.677Z,1011.31
2022-11-25T01:54:45.682Z,1011.30
2022-11-25T01:55:45.667Z,1011.33
2022-11-25T01:56:45.990Z,1011.28
2022-11-25T01:57:45.659Z,1011.27
2022-11-25T01:58:45.987Z,1011.25
2022-11-25T01:59:45.650Z,1011.25
2022-11-25T02:00:45.695Z,1011.21
2022-11-25T02:01:45.723Z,1011.21
2022-11-25T02:02:45.735Z,1011.20
2022-11-25T02:03:45.649Z,1011.17
2022-11-25T02:04:45.967Z,1011.16
2022-11-25T02:05:45.633Z,1011.15
2022-11-25T02:06:45.629Z,1011.17
2022-11-25T02:07:45.737Z,1011.17
2022-11-25T02:08:45.622Z,1011.15
2022-11-25T02:09:45.612Z,1011.17
2022-11-25T02:10:45.619Z,1011.16
2022-11-25T02:11:45.607Z,1011.15
2022-11-25T02:12:45.628Z,1011.15
2022-11-25T02:13:45.601Z,1011.19
2022-11-25T02:14:45.626Z,1011.23
2022-11-25T02:15:45.592Z,1011.21
2022-11-25T02:16:45.737Z,1011.22
2022-11-25T02:17:45.589Z,1011.26
2022-11-25T02:18:45.586Z,1011.23
2022-11-25T02:19:45.578Z,1011.24
2022-11-25T02:20:45.581Z,1011.21
2022-11-25T02:21:45.574Z,1011.23
2022-11-25T02:22:45.578Z,1011.21
2022-11-25T02:23:45.563Z,1011.23
2022-11-25T02:24:45.565Z,1011.21
2022-11-25T02:25:45.565Z,1011.23
2022-11-25T02:26:45.558Z,1011.23
2022-11-25T02:27:45.551Z,1011.22
2022-11-25T02:28:45.549Z,1011.20
2022-11-25T02:29:45.545Z,1011.15
2022-11-25T02:30:45.565Z,1011.17
2022-11-25T02:31:45.654Z,1011.13
2022-11-25T02:32:45.536Z,1011.15
2022-11-25T02:33:45.531Z,1011.12
2022-11-25T02:34:45.528Z,1011.09
2022-11-25T02:35:45.530Z,1011.11
2022-11-25T02:37:45.518Z,1011.05
2022-11-25T02:38:45.511Z,1011.08
2022-11-25T02:39:45.509Z,1011.06
2022-11-25T02:40:45.506Z,1011.06
2022-11-25T02:41:45.506Z,1011.07
2022-11-25T02:42:45.497Z,1011.05
2022-11-25T02:43:45.497Z,1011.06
2022-11-25T02:44:45.490Z,1011.04
2022-11-25T02:45:45.560Z,1011.05
2022-11-25T02:46:45.504Z,1011.08
2022-11-25T02:47:45.482Z,1011.04
2022-11-25T02:49:07.970Z,1011.05
2022-11-25T02:49:45.472Z,1011.05
2022-11-25T02:50:45.470Z,1011.05
2022-11-25T02:51:45.469Z,1011.10
2022-11-25T02:52:45.468Z,1011.03
2022-11-25T02:53:45.472Z,1011.13
2022-11-25T02:54:45.449Z,1011.15
2022-11-25T02:55:45.452Z,1011.12
2022-11-25T02:56:45.445Z,1011.15
2022-11-25T02:57:45.444Z,1011.11
2022-11-25T02:58:45.437Z,1011.11
2022-11-25T02:59:45.442Z,1011.07
2022-11-25T03:00:45.494Z,1011.12
2022-11-25T03:01:45.480Z,1011.11
2022-11-25T03:02:45.450Z,1011.10
2022-11-25T03:03:45.421Z,1011.13
2022-11-25T03:04:45.420Z,1011.10
2022-11-25T03:05:45.416Z,1011.12
2022-11-25T03:06:45.413Z,1011.11
2022-11-25T03:07:45.456Z,1011.14
2022-11-25T03:08:45.398Z,1011.11
2022-11-25T03:09:45.402Z,1011.18
2022-11-25T03:10:45.397Z,1011.17
2022-11-25T03:11:45.398Z,1011.18
2022-11-25T03:12:45.386Z,1011.17
2022-11-25T03:13:45.391Z,1011.21
2022-11-25T03:14:45.381Z,1011.19
2022-11-25T03:15:45.383Z,1011.19
2022-11-25T03:16:45.437Z,1011.26
2022-11-25T03:17:45.373Z,1011.29
2022-11-25T03:18:45.397Z,1011.31
2022-11-25T03:19:45.366Z,1011.34
2022-11-25T03:20:45.382Z,1011.30
2022-11-25T03:21:45.360Z,1011.31
2022-11-25T03:22:45.351Z,1011.29
2022-11-25T03:23:45.349Z,1011.30
2022-11-25T03:24:45.345Z,1011.26
2022-11-25T03:25:45.350Z,1011.25
2022-11-25T03:26:45.337Z,1011.29
2022-11-25T03:27:45.334Z,1011.28
2022-11-25T03:28:45.335Z,1011.27
2022-11-25T03:29:45.331Z,1011.28
2022-11-25T03:30:45.325Z,1011.32
2022-11-25T03:31:45.354Z,1011.32
2022-11-25T03:32:45.313Z,1011.35
2022-11-25T03:33:45.321Z,1011.32
2022-11-25T03:34:45.395Z,1011.31
2022-11-25T03:35:45.309Z,1011.33
2022-11-25T03:36:45.353Z,1011.34
2022-11-25T03:37:45.300Z,1011.34
2022-11-25T03:38:45.618Z,1011.32
2022-11-25T03:39:45.290Z,1011.28
2022-11-25T03:40:45.286Z,1011.27
2022-11-25T03:41:45.285Z,1011.28
2022-11-25T03:42:45.284Z,1011.28
2022-11-25T03:43:45.282Z,1011.27
2022-11-25T03:44:45.271Z,1011.32
2022-11-25T03:45:45.309Z,1011.33
2022-11-25T03:46:45.266Z,1011.37
2022-11-25T03:47:45.270Z,1011.44
2022-11-25T03:48:45.261Z,1011.42
2022-11-25T03:49:45.257Z,1011.43
2022-11-25T03:50:45.272Z,1011.44
2022-11-25T03:51:45.256Z,1011.47
2022-11-25T03:52:45.256Z,1011.45
2022-11-25T03:53:45.243Z,1011.48
2022-11-25T03:54:45.237Z,1011.48
2022-11-25T03:55:45.239Z,1011.43
2022-11-25T03:56:45.234Z,1011.42
2022-11-25T03:57:45.232Z,1011.38
2022-11-25T03:58:45.227Z,1011.38
2022-11-25T03:59:45.228Z,1011.43
2022-11-25T04:00:45.215Z,1011.39
2022-11-25T04:01:45.310Z,1011.45
2022-11-25T04:02:45.237Z,1011.44
2022-11-25T04:03:45.208Z,1011.36
2022-11-25T04:04:45.202Z,1011.36
2022-11-25T04:05:45.200Z,1011.38
2022-11-25T04:06:45.210Z,1011.37
2022-11-25T04:07:45.253Z,1011.39
2022-11-25T04:08:45.191Z,1011.40
2022-11-25T04:09:45.188Z,1011.41
2022-11-25T04:10:45.182Z,1011.44
2022-11-25T04:11:45.182Z,1011.48
2022-11-25T04:12:45.181Z,1011.48
2022-11-25T04:13:45.175Z,1011.43
2022-11-25T04:14:45.170Z,1011.50
2022-11-25T04:15:45.172Z,1011.47
2022-11-25T04:16:45.278Z,1011.45
2022-11-25T04:17:45.162Z,1011.47
2022-11-25T04:18:45.156Z,1011.45
2022-11-25T04:19:45.163Z,1011.47
2022-11-25T04:20:45.148Z,1011.46
2022-11-25T04:21:50.781Z,1011.45
2022-11-25T04:22:45.163Z,1011.38
2022-11-25T04:23:45.140Z,1011.50
2022-11-25T04:24:45.134Z,1011.48
2022-11-25T04:25:45.139Z,1011.49
2022-11-25T04:26:45.127Z,1011.45
2022-11-25T04:27:45.128Z,1011.49
2022-11-25T04:28:45.126Z,1011.43
2022-11-25T04:29:45.122Z,1011.43
2022-11-25T04:30:45.132Z,1011.48
2022-11-25T04:31:45.112Z,1011.44
2022-11-25T04:32:45.108Z,1011.41
2022-11-25T04:33:49.639Z,1011.43
2022-11-25T04:34:45.101Z,1011.44
2022-11-25T04:35:45.096Z,1011.45
2022-11-25T04:36:45.095Z,1011.48
2022-11-25T04:37:45.095Z,1011.54
2022-11-25T04:38:45.105Z,1011.53
2022-11-25T04:39:45.086Z,1011.53
2022-11-25T04:40:45.077Z,1011.54
2022-11-25T04:41:45.084Z,1011.56
2022-11-25T04:42:45.078Z,1011.57
2022-11-25T04:43:45.070Z,1011.52
2022-11-25T04:45:01.131Z,1011.57
2022-11-25T04:46:12.513Z,1011.51
2022-11-25T04:46:45.089Z,1011.61
2022-11-25T04:47:45.060Z,1011.61
2022-11-25T04:48:45.049Z,1011.59
2022-11-25T04:49:45.048Z,1011.59
2022-11-25T04:50:45.041Z,1011.58
2022-11-25T04:51:45.046Z,1011.61
2022-11-25T04:52:45.032Z,1011.71
2022-11-25T04:53:45.036Z,1011.73
2022-11-25T04:54:29.865Z,1011.73
2022-11-25T04:55:29.835Z,1011.77
2022-11-25T04:56:29.829Z,1011.80
2022-11-25T04:57:29.824Z,1011.83
2022-11-25T04:58:29.822Z,1011.86
2022-11-25T04:59:29.816Z,1011.86
2022-11-25T05:00:29.818Z,1011.86
2022-11-25T05:01:29.925Z,1011.84
2022-11-25T05:02:30.041Z,1011.82
2022-11-25T05:03:29.807Z,1011.83
2022-11-25T05:04:29.799Z,1011.83
2022-11-25T05:05:29.802Z,1011.79
2022-11-25T05:06:29.792Z,1011.78
2022-11-25T05:07:29.955Z,1011.75
2022-11-25T05:08:29.790Z,1011.71
2022-11-25T05:09:29.786Z,1011.74
2022-11-25T05:10:29.808Z,1011.73
2022-11-25T05:11:29.779Z,1011.75
2022-11-25T05:12:29.775Z,1011.76
2022-11-25T05:13:29.776Z,1011.73
2022-11-25T05:14:29.769Z,1011.73
2022-11-25T05:15:29.765Z,1011.77
2022-11-25T05:16:29.788Z,1011.77
2022-11-25T05:17:29.762Z,1011.80
2022-11-25T05:18:29.751Z,1011.75
2022-11-25T05:19:29.759Z,1011.74
2022-11-25T05:20:29.754Z,1011.76
2022-11-25T05:21:29.748Z,1011.74
2022-11-25T05:22:29.745Z,1011.79
2022-11-25T05:23:29.743Z,1011.78
2022-11-25T05:24:29.731Z,1011.78
2022-11-25T05:25:29.741Z,1011.78
2022-11-25T05:26:29.755Z,1011.81
2022-11-25T05:27:29.724Z,1011.82
2022-11-25T05:28:29.718Z,1011.79
2022-11-25T05:29:29.723Z,1011.79
2022-11-25T05:30:29.772Z,1011.84
2022-11-25T05:31:29.711Z,1011.82
2022-11-25T05:32:29.781Z,1011.78
2022-11-25T05:33:29.703Z,1011.84
2022-11-25T05:34:29.700Z,1011.82
2022-11-25T05:35:29.704Z,1011.80
2022-11-25T05:36:29.690Z,1011.81
2022-11-25T05:37:29.690Z,1011.81
2022-11-25T05:38:29.683Z,1011.84
2022-11-25T05:39:29.692Z,1011.83
2022-11-25T05:40:29.678Z,1011.84
2022-11-25T05:41:29.675Z,1011.85
2022-11-25T05:42:29.729Z,1011.90
2022-11-25T05:43:29.669Z,1011.88
2022-11-25T05:44:29.663Z,1011.88
2022-11-25T05:45:29.666Z,1011.83
2022-11-25T05:46:29.845Z,1011.84
2022-11-25T05:47:29.658Z,1011.79
2022-11-25T05:48:29.647Z,1011.82
2022-11-25T05:49:29.652Z,1011.79
2022-11-25T05:50:29.636Z,1011.84
2022-11-25T05:51:29.641Z,1011.85
2022-11-25T05:52:29.634Z,1011.92
2022-11-25T05:53:29.636Z,1011.91
2022-11-25T05:54:29.629Z,1011.89
2022-11-25T05:55:29.633Z,1011.91
2022-11-25T05:56:29.633Z,1011.92
2022-11-25T05:57:29.624Z,1011.91
2022-11-25T05:58:29.643Z,1011.89
2022-11-25T05:59:29.610Z,1011.91
2022-11-25T06:00:29.608Z,1011.95
2022-11-25T06:01:29.609Z,1011.94
2022-11-25T06:02:29.728Z,1011.95
2022-11-25T06:03:29.699Z,1011.91
2022-11-25T06:04:29.593Z,1011.95
2022-11-25T06:05:29.594Z,1011.92
2022-11-25T06:06:29.585Z,1011.93
2022-11-25T06:07:29.659Z,1011.98
2022-11-25T06:08:29.579Z,1011.94
2022-11-25T06:09:29.580Z,1011.98
2022-11-25T06:10:29.577Z,1011.91
2022-11-25T06:11:29.574Z,1011.89
2022-11-25T06:12:29.569Z,1011.92
2022-11-25T06:13:29.568Z,1011.95
2022-11-25T06:14:29.585Z,1011.95
2022-11-25T06:15:29.574Z,1011.98
2022-11-25T06:16:29.579Z,1012.03
2022-11-25T06:17:29.553Z,1012.02
2022-11-25T06:18:29.550Z,1012.03
2022-11-25T06:19:29.544Z,1012.01
2022-11-25T06:20:29.538Z,1012.01
2022-11-25T06:21:29.539Z,1012.03
2022-11-25T06:22:29.531Z,1012.08
2022-11-25T06:23:29.533Z,1012.09
2022-11-25T06:24:29.524Z,1012.08
2022-11-25T06:25:29.522Z,1012.12
2022-11-25T06:26:29.516Z,1012.10
2022-11-25T06:27:43.948Z,1012.08
2022-11-25T06:28:29.515Z,1012.02
2022-11-25T06:29:29.520Z,1012.00
2022-11-25T06:30:29.525Z,1012.05
2022-11-25T06:31:29.596Z,1012.05
2022-11-25T06:32:32.139Z,1012.03
2022-11-25T06:33:29.502Z,1012.04
2022-11-25T06:34:29.489Z,1012.00
2022-11-25T06:35:29.485Z,1012.00
2022-11-25T06:36:29.494Z,1012.00
2022-11-25T06:37:29.494Z,1011.96
2022-11-25T06:38:29.476Z,1011.97
2022-11-25T06:39:29.476Z,1011.95
2022-11-25T06:40:29.466Z,1011.96
2022-11-25T06:41:29.467Z,1012.02
2022-11-25T06:42:29.462Z,1011.99
2022-11-25T06:43:29.481Z,1012.01
2022-11-25T06:44:29.460Z,1012.02
2022-11-25T06:45:29.454Z,1012.04
2022-11-25T06:46:29.564Z,1011.98
2022-11-25T06:47:29.446Z,1011.92
2022-11-25T06:48:29.440Z,1011.94
2022-11-25T06:49:29.441Z,1011.96
2022-11-25T06:50:29.436Z,1011.91
2022-11-25T06:51:29.431Z,1011.93
2022-11-25T06:52:29.426Z,1011.91
2022-11-25T06:53:29.430Z,1011.96
2022-11-25T06:54:29.419Z,1011.95
2022-11-25T06:55:29.417Z,1011.96
2022-11-25T06:56:29.413Z,1011.97
2022-11-25T06:57:29.414Z,1011.97
2022-11-25T06:58:35.840Z,1011.98
2022-11-25T06:59:29.407Z,1011.98
2022-11-25T07:00:29.482Z,1012.02
2022-11-25T07:01:29.436Z,1012.01
2022-11-25T07:02:31.435Z,1012.04
2022-11-25T07:03:29.395Z,1012.06
2022-11-25T07:04:29.383Z,1012.08
2022-11-25T07:05:29.386Z,1012.07
2022-11-25T07:06:29.376Z,1012.05
2022-11-25T07:07:29.413Z,1012.04
2022-11-25T07:08:33.690Z,1012.06
2022-11-25T07:09:29.369Z,1012.06
2022-11-25T07:10:29.392Z,1012.10
2022-11-25T07:11:29.364Z,1012.14
2022-11-25T07:12:29.353Z,1012.15
2022-11-25T07:13:29.354Z,1012.10
2022-11-25T07:14:29.348Z,1012.12
2022-11-25T07:15:29.348Z,1012.18
2022-11-25T07:16:29.425Z,1012.17
2022-11-25T07:17:29.340Z,1012.15
2022-11-25T07:18:29.355Z,1012.23
2022-11-25T07:19:29.334Z,1012.19
2022-11-25T07:20:29.329Z,1012.19
2022-11-25T07:21:29.329Z,1012.23
2022-11-25T07:22:29.317Z,1012.28
2022-11-25T07:23:29.371Z,1012.29
2022-11-25T07:24:29.317Z,1012.35
2022-11-25T07:25:30.834Z,1012.35
2022-11-25T07:26:29.306Z,1012.38
2022-11-25T07:27:29.309Z,1012.39
2022-11-25T07:28:29.296Z,1012.40
2022-11-25T07:29:54.181Z,1012.40
2022-11-25T07:31:21.870Z,1012.37
2022-11-25T07:31:32.407Z,1012.39
2022-11-25T07:32:29.288Z,1012.36
2022-11-25T07:33:29.312Z,1012.39
2022-11-25T07:34:29.298Z,1012.40
2022-11-25T07:35:29.281Z,1012.43
2022-11-25T07:36:29.267Z,1012.45
2022-11-25T07:37:29.285Z,1012.50
2022-11-25T07:38:29.261Z,1012.52
2022-11-25T07:39:29.264Z,1012.53
2022-11-25T07:40:29.256Z,1012.52
2022-11-25T07:41:29.252Z,1012.52
2022-11-25T07:42:29.243Z,1012.54
2022-11-25T07:43:29.249Z,1012.52
2022-11-25T07:44:29.239Z,1012.55
2022-11-25T07:45:29.238Z,1012.61
2022-11-25T07:46:29.293Z,1012.58
2022-11-25T07:47:29.235Z,1012.57
2022-11-25T07:48:29.226Z,1012.62
2022-11-25T07:49:29.224Z,1012.62
2022-11-25T07:50:29.243Z,1012.61
2022-11-25T07:51:29.215Z,1012.61
2022-11-25T07:52:29.209Z,1012.63
2022-11-25T07:53:29.213Z,1012.68
2022-11-25T07:54:29.200Z,1012.63
2022-11-25T07:55:29.200Z,1012.64
2022-11-25T07:56:29.198Z,1012.63
2022-11-25T07:57:29.195Z,1012.71
2022-11-25T07:58:29.187Z,1012.68
2022-11-25T07:59:29.189Z,1012.62
2022-11-25T08:00:29.177Z,1012.64
2022-11-25T08:01:29.240Z,1012.70
2022-11-25T08:02:29.297Z,1012.69
2022-11-25T08:03:29.172Z,1012.70
2022-11-25T08:04:29.167Z,1012.66
2022-11-25T08:05:29.166Z,1012.70
2022-11-25T08:06:29.182Z,1012.67
2022-11-25T08:07:34.889Z,1012.66
2022-11-25T08:08:29.149Z,1012.69
2022-11-25T08:09:29.155Z,1012.71
2022-11-25T08:10:29.147Z,1012.69
2022-11-25T08:11:29.148Z,1012.66
2022-11-25T08:12:29.133Z,1012.67
2022-11-25T08:13:29.135Z,1012.69
2022-11-25T08:14:29.135Z,1012.68
2022-11-25T08:15:29.139Z,1012.68
2022-11-25T08:16:29.181Z,1012.61
2022-11-25T08:17:29.123Z,1012.67
2022-11-25T08:18:29.122Z,1012.66
2022-11-25T08:19:31.587Z,1012.61
2022-11-25T08:20:29.114Z,1012.62
2022-11-25T08:21:29.115Z,1012.62
2022-11-25T08:22:29.131Z,1012.69
2022-11-25T08:23:29.103Z,1012.71
2022-11-25T08:24:29.095Z,1012.68
2022-11-25T08:25:29.094Z,1012.75
2022-11-25T08:26:29.084Z,1012.79
2022-11-25T08:27:29.088Z,1012.78
2022-11-25T08:28:29.083Z,1012.76
2022-11-25T08:29:29.087Z,1012.70
2022-11-25T08:30:29.075Z,1012.74
2022-11-25T08:31:29.145Z,1012.73
2022-11-25T08:32:29.070Z,1012.70
2022-11-25T08:33:29.066Z,1012.73
2022-11-25T08:34:29.069Z,1012.72
2022-11-25T08:35:29.059Z,1012.71
2022-11-25T08:36:29.052Z,1012.63
2022-11-25T08:37:29.055Z,1012.65
2022-11-25T08:38:29.079Z,1012.68
2022-11-25T08:39:51.015Z,1012.67
2022-11-25T08:40:29.044Z,1012.69
2022-11-25T08:41:29.046Z,1012.67
2022-11-25T08:42:29.040Z,1012.74
2022-11-25T08:43:29.738Z,1012.73
2022-11-25T08:44:29.026Z,1012.71
2022-11-25T08:45:29.023Z,1012.73
2022-11-25T08:46:29.100Z,1012.75
2022-11-25T08:47:29.020Z,1012.74
2022-11-25T08:48:29.011Z,1012.81
2022-11-25T08:49:29.016Z,1012.74
2022-11-25T08:50:29.006Z,1012.75
2022-11-25T08:51:29.009Z,1012.78
2022-11-25T08:52:29.002Z,1012.76
2022-11-25T08:53:29.001Z,1012.74
2022-11-25T08:54:29.022Z,1012.77
2022-11-25T08:55:28.990Z,1012.78
2022-11-25T08:56:28.987Z,1012.79
2022-11-25T08:57:28.986Z,1012.73
2022-11-25T08:58:28.980Z,1012.82
2022-11-25T08:59:28.980Z,1012.84
2022-11-25T09:00:28.990Z,1012.83
2022-11-25T09:01:29.080Z,1012.85
2022-11-25T09:02:29.018Z,1012.88
2022-11-25T09:03:29.031Z,1012.83
2022-11-25T09:04:28.961Z,1012.82
2022-11-25T09:05:28.963Z,1012.85
2022-11-25T09:06:28.958Z,1012.86
2022-11-25T09:07:30.804Z,1012.87
2022-11-25T09:08:28.955Z,1012.86
2022-11-25T09:09:28.949Z,1012.88
2022-11-25T09:10:28.967Z,1012.93
2022-11-25T09:11:29.123Z,1012.92
2022-11-25T09:12:28.935Z,1012.94
2022-11-25T09:13:28.931Z,1012.92
2022-11-25T09:14:29.020Z,1012.93
2022-11-25T09:15:28.926Z,1012.95
2022-11-25T09:16:29.036Z,1012.94
2022-11-25T09:17:28.919Z,1012.96
2022-11-25T09:18:28.918Z,1012.96
2022-11-25T09:19:28.917Z,1012.93
2022-11-25T09:20:28.911Z,1012.96
2022-11-25T09:21:28.902Z,1012.97
2022-11-25T09:22:28.901Z,1013.01
2022-11-25T09:23:28.908Z,1013.00
2022-11-25T09:24:28.901Z,1012.99
2022-11-25T09:25:28.893Z,1012.95
2022-11-25T09:26:28.921Z,1012.98
2022-11-25T09:27:28.891Z,1012.91
2022-11-25T09:28:28.890Z,1012.99
2022-11-25T09:29:28.882Z,1012.98
2022-11-25T09:30:28.888Z,1013.00
2022-11-25T09:31:28.955Z,1013.00
2022-11-25T09:32:28.896Z,1012.97
2022-11-25T09:33:28.877Z,1012.96
2022-11-25T09:34:28.872Z,1012.96
2022-11-25T09:35:28.863Z,1012.96
2022-11-25T09:36:28.869Z,1012.99
2022-11-25T09:37:28.854Z,1012.96
2022-11-25T09:38:28.856Z,1013.03
2022-11-25T09:39:28.847Z,1013.00
2022-11-25T09:40:28.850Z,1012.99
2022-11-25T09:41:28.846Z,1012.99
2022-11-25T09:42:28.874Z,1012.95
2022-11-25T09:43:28.840Z,1012.91
2022-11-25T09:44:28.841Z,1012.94
2022-11-25T09:45:28.840Z,1012.94
2022-11-25T09:46:28.881Z,1012.96
2022-11-25T09:47:28.829Z,1012.96
2022-11-25T09:48:28.842Z,1012.95
2022-11-25T09:49:28.829Z,1012.95
2022-11-25T09:50:28.826Z,1012.92
2022-11-25T09:51:28.817Z,1012.93
2022-11-25T09:52:28.817Z,1012.97
2022-11-25T09:53:28.813Z,1012.90
2022-11-25T09:54:28.886Z,1012.94
2022-11-25T09:55:28.805Z,1013.00
2022-11-25T09:56:28.808Z,1012.94
2022-11-25T09:57:28.799Z,1012.96
2022-11-25T09:58:28.824Z,1012.97
2022-11-25T09:59:28.790Z,1013.00
2022-11-25T10:00:28.792Z,1012.97
2022-11-25T10:01:28.789Z,1012.99
2022-11-25T10:02:28.919Z,1012.97
2022-11-25T10:03:28.841Z,1013.03
2022-11-25T10:04:28.788Z,1012.99
2022-11-25T10:05:28.787Z,1012.94
2022-11-25T10:06:28.848Z,1012.97
2022-11-25T10:07:28.769Z,1012.96
2022-11-25T10:08:28.774Z,1012.92
2022-11-25T10:09:28.770Z,1012.94
2022-11-25T10:10:28.770Z,1012.93
2022-11-25T10:11:28.758Z,1012.93
2022-11-25T10:12:28.763Z,1012.94
2022-11-25T10:13:28.760Z,1012.96
2022-11-25T10:14:28.781Z,1012.98
2022-11-25T10:15:28.757Z,1012.99
2022-11-25T10:16:28.806Z,1012.99
2022-11-25T10:17:28.749Z,1012.89
2022-11-25T10:18:28.752Z,1012.90
2022-11-25T10:19:28.741Z,1012.88
2022-11-25T10:20:28.742Z,1012.96
2022-11-25T10:21:28.740Z,1012.94
2022-11-25T10:22:28.733Z,1012.93
2022-11-25T10:23:28.851Z,1012.98
2022-11-25T10:24:28.731Z,1012.90
2022-11-25T10:25:28.722Z,1012.92
2022-11-25T10:26:28.725Z,1012.91
2022-11-25T10:27:28.721Z,1012.88
2022-11-25T10:28:28.724Z,1012.82
2022-11-25T10:29:28.714Z,1012.86
2022-11-25T10:30:28.742Z,1012.82
2022-11-25T10:31:28.769Z,1012.79
2022-11-25T10:32:28.709Z,1012.80
2022-11-25T10:33:28.756Z,1012.80
2022-11-25T10:34:28.704Z,1012.86
2022-11-25T10:35:28.697Z,1012.86
2022-11-25T10:36:28.701Z,1012.85
2022-11-25T10:37:28.697Z,1012.81
2022-11-25T10:38:28.706Z,1012.83
2022-11-25T10:39:28.694Z,1012.76
2022-11-25T10:40:28.686Z,1012.80
2022-11-25T10:41:28.684Z,1012.81
2022-11-25T10:42:28.684Z,1012.79
2022-11-25T10:43:31.675Z,1012.80
2022-11-25T10:44:28.685Z,1012.79
2022-11-25T10:45:28.679Z,1012.80
2022-11-25T10:46:49.634Z,1012.84
2022-11-25T10:47:28.749Z,1012.81
2022-11-25T10:48:28.668Z,1012.79
2022-11-25T10:49:28.670Z,1012.77
2022-11-25T10:50:28.670Z,1012.75
2022-11-25T10:51:28.665Z,1012.73
2022-11-25T10:52:28.661Z,1012.71
2022-11-25T10:53:28.669Z,1012.77
2022-11-25T10:54:28.658Z,1012.77
2022-11-25T10:55:28.648Z,1012.78
2022-11-25T10:56:28.652Z,1012.73
2022-11-25T10:57:28.645Z,1012.77
2022-11-25T10:58:28.650Z,1012.76
2022-11-25T10:59:28.638Z,1012.77
2022-11-25T11:00:28.648Z,1012.73
2022-11-25T11:01:28.682Z,1012.79
2022-11-25T11:03:28.664Z,1012.78
2022-11-25T11:04:28.644Z,1012.81
2022-11-25T11:05:28.635Z,1012.79
2022-11-25T11:06:28.631Z,1012.81
2022-11-25T11:07:28.671Z,1012.81
2022-11-25T11:08:28.628Z,1012.81
2022-11-25T11:09:28.624Z,1012.81
2022-11-25T11:10:28.627Z,1012.79
2022-11-25T11:11:28.616Z,1012.84
2022-11-25T11:12:28.618Z,1012.83
2022-11-25T11:13:28.616Z,1012.86
2022-11-25T11:14:28.611Z,1012.86
2022-11-25T11:15:28.610Z,1012.83
2022-11-25T11:16:28.653Z,1012.86
2022-11-25T11:17:31.925Z,1012.82
2022-11-25T11:18:28.599Z,1012.77
2022-11-25T11:19:28.620Z,1012.79
2022-11-25T11:20:28.603Z,1012.82
2022-11-25T11:21:28.598Z,1012.77
2022-11-25T11:22:28.596Z,1012.77
2022-11-25T11:23:28.598Z,1012.77
2022-11-25T11:24:28.599Z,1012.76
2022-11-25T11:25:28.588Z,1012.74
2022-11-25T11:26:28.593Z,1012.71
2022-11-25T11:27:28.584Z,1012.73
2022-11-25T11:28:28.592Z,1012.75
2022-11-25T11:29:28.580Z,1012.76
2022-11-25T11:30:28.575Z,1012.77
2022-11-25T11:31:28.729Z,1012.74
2022-11-25T11:32:28.571Z,1012.73
2022-11-25T11:33:28.617Z,1012.76
2022-11-25T11:34:28.567Z,1012.73
2022-11-25T11:35:28.590Z,1012.74
2022-11-25T11:36:28.571Z,1012.76
2022-11-25T11:37:28.559Z,1012.80
2022-11-25T11:38:28.565Z,1012.79
2022-11-25T11:39:28.554Z,1012.79
2022-11-25T11:40:28.558Z,1012.77
2022-11-25T11:41:28.553Z,1012.82
2022-11-25T11:42:28.550Z,1012.81
2022-11-25T11:43:28.549Z,1012.73
2022-11-25T11:44:28.545Z,1012.75
2022-11-25T11:45:28.543Z,1012.81
2022-11-25T11:46:28.615Z,1012.74
2022-11-25T11:47:28.545Z,1012.76
2022-11-25T11:48:28.571Z,1012.73
2022-11-25T11:49:30.709Z,1012.75
2022-11-25T11:50:28.531Z,1012.74
2022-11-25T11:51:28.645Z,1012.68
2022-11-25T11:52:28.534Z,1012.71
2022-11-25T11:53:28.530Z,1012.71
2022-11-25T11:54:28.524Z,1012.72
2022-11-25T11:55:28.520Z,1012.68
2022-11-25T11:56:35.299Z,1012.72
2022-11-25T11:57:28.513Z,1012.74
2022-11-25T11:58:28.513Z,1012.75
2022-11-25T11:59:28.521Z,1012.78
2022-11-25T12:00:28.510Z,1012.77
2022-11-25T12:01:28.514Z,1012.79
2022-11-25T12:02:28.583Z,1012.84
2022-11-25T12:03:28.570Z,1012.82
2022-11-25T12:04:28.505Z,1012.79
2022-11-25T12:05:28.501Z,1012.81
2022-11-25T12:06:28.498Z,1012.76
2022-11-25T12:07:28.605Z,1012.76